sensor_id;sensor_type;location;lat;lon;timestamp;pressure;altitude;pressure_sealevel;temperature;humidity
72921;BME280;61064;51.654;5.476;2023-04-06T00:01:24;101866.28;;;5.17;55.76
72921;BME280;61064;51.654;5.476;2023-04-06T00:03:49;101798.44;;;4.74;55.77
72921;BME280;61064;51.654;5.476;2023-04-06T00:06:14;101819.06;;;4.83;55.81
72921;BME280;61064;51.654;5.476;2023-04-06T00:08:40;101870.59;;;5.15;56.11
72921;BME280;61064;51.654;5.476;2023-04-06T00:11:06;101807.44;;;4.79;56.01
72921;BME280;61064;51.654;5.476;2023-04-06T00:13:31;101805.44;;;4.74;55.91
72921;BME280;61064;51.654;5.476;2023-04-06T00:15:56;101872.94;;;5.09;55.74
72921;BME280;61064;51.654;5.476;2023-04-06T00:18:22;101824.41;;;4.84;56.01
72921;BME280;61064;51.654;5.476;2023-04-06T00:20:47;101864.00;;;5.05;55.82
72921;BME280;61064;51.654;5.476;2023-04-06T00:23:13;101857.75;;;5.03;56.13
72921;BME280;61064;51.654;5.476;2023-04-06T00:25:38;101827.72;;;4.80;56.18
72921;BME280;61064;51.654;5.476;2023-04-06T00:28:04;101854.91;;;4.98;56.05
72921;BME280;61064;51.654;5.476;2023-04-06T00:30:29;101834.16;;;4.87;56.22
72921;BME280;61064;51.654;5.476;2023-04-06T00:32:55;101853.00;;;4.94;56.33
72921;BME280;61064;51.654;5.476;2023-04-06T00:35:20;101760.28;;;4.47;56.30
72921;BME280;61064;51.654;5.476;2023-04-06T00:37:46;101783.75;;;4.60;55.93
72921;BME280;61064;51.654;5.476;2023-04-06T00:40:13;101846.66;;;4.91;56.26
72921;BME280;61064;51.654;5.476;2023-04-06T00:42:38;101842.22;;;4.90;56.38
72921;BME280;61064;51.654;5.476;2023-04-06T00:45:04;101842.28;;;4.91;56.21
72921;BME280;61064;51.654;5.476;2023-04-06T00:47:30;101808.97;;;4.74;56.32
72921;BME280;61064;51.654;5.476;2023-04-06T00:49:56;101797.41;;;4.71;56.30
72921;BME280;61064;51.654;5.476;2023-04-06T00:52:21;101829.09;;;4.91;56.09
72921;BME280;61064;51.654;5.476;2023-04-06T00:54:47;101757.75;;;4.48;55.89
72921;BME280;61064;51.654;5.476;2023-04-06T00:57:13;101788.59;;;4.70;56.26
72921;BME280;61064;51.654;5.476;2023-04-06T00:59:39;101731.91;;;4.40;56.30
72921;BME280;61064;51.654;5.476;2023-04-06T01:02:04;101824.72;;;4.92;56.39
72921;BME280;61064;51.654;5.476;2023-04-06T01:04:30;101781.59;;;4.71;56.19
72921;BME280;61064;51.654;5.476;2023-04-06T01:06:56;101734.72;;;4.44;56.26
72921;BME280;61064;51.654;5.476;2023-04-06T01:09:21;101747.56;;;4.56;56.22
72921;BME280;61064;51.654;5.476;2023-04-06T01:11:47;101813.47;;;4.96;56.15
72921;BME280;61064;51.654;5.476;2023-04-06T01:14:12;101752.13;;;4.60;56.30
72921;BME280;61064;51.654;5.476;2023-04-06T01:16:38;101778.41;;;4.78;56.27
72921;BME280;61064;51.654;5.476;2023-04-06T01:19:10;101793.78;;;4.88;56.03
72921;BME280;61064;51.654;5.476;2023-04-06T01:21:37;101815.38;;;4.98;56.06
72921;BME280;61064;51.654;5.476;2023-04-06T01:24:03;101773.41;;;4.84;56.25
72921;BME280;61064;51.654;5.476;2023-04-06T01:26:28;101792.88;;;4.87;56.26
72921;BME280;61064;51.654;5.476;2023-04-06T01:28:55;101805.78;;;5.00;56.00
72921;BME280;61064;51.654;5.476;2023-04-06T01:31:20;101779.81;;;4.90;56.48
72921;BME280;61064;51.654;5.476;2023-04-06T01:33:46;101756.50;;;4.79;56.54
72921;BME280;61064;51.654;5.476;2023-04-06T01:36:12;101739.34;;;4.69;56.42
72921;BME280;61064;51.654;5.476;2023-04-06T01:38:37;101790.78;;;4.99;56.68
72921;BME280;61064;51.654;5.476;2023-04-06T01:41:02;101724.31;;;4.67;56.42
72921;BME280;61064;51.654;5.476;2023-04-06T01:43:28;101788.16;;;4.99;56.50
72921;BME280;61064;51.654;5.476;2023-04-06T01:45:53;101781.16;;;5.00;56.52
72921;BME280;61064;51.654;5.476;2023-04-06T01:48:19;101726.34;;;4.74;56.72
72921;BME280;61064;51.654;5.476;2023-04-06T01:50:44;101714.59;;;4.66;56.62
72921;BME280;61064;51.654;5.476;2023-04-06T01:53:09;101735.44;;;4.80;56.52
72921;BME280;61064;51.654;5.476;2023-04-06T01:55:35;101716.53;;;4.70;56.59
72921;BME280;61064;51.654;5.476;2023-04-06T01:58:00;101750.16;;;4.94;56.87
72921;BME280;61064;51.654;5.476;2023-04-06T02:00:28;101770.16;;;5.10;56.83
72921;BME280;61064;51.654;5.476;2023-04-06T02:02:53;101682.06;;;4.65;56.90
72921;BME280;61064;51.654;5.476;2023-04-06T02:05:19;101763.28;;;5.14;56.74
72921;BME280;61064;51.654;5.476;2023-04-06T02:07:45;101758.16;;;5.17;56.72
72921;BME280;61064;51.654;5.476;2023-04-06T02:10:12;101757.44;;;5.21;56.78
72921;BME280;61064;51.654;5.476;2023-04-06T02:12:38;101697.44;;;4.96;56.70
72921;BME280;61064;51.654;5.476;2023-04-06T02:15:04;101750.59;;;5.26;56.52
72921;BME280;61064;51.654;5.476;2023-04-06T02:17:29;101754.22;;;5.28;56.29
72921;BME280;61064;51.654;5.476;2023-04-06T02:19:55;101734.94;;;5.29;56.37
72921;BME280;61064;51.654;5.476;2023-04-06T02:22:20;101743.09;;;5.35;56.44
72921;BME280;61064;51.654;5.476;2023-04-06T02:24:45;101692.78;;;5.10;56.64
72921;BME280;61064;51.654;5.476;2023-04-06T02:27:12;101686.78;;;5.14;56.33
72921;BME280;61064;51.654;5.476;2023-04-06T02:29:37;101738.94;;;5.41;56.56
72921;BME280;61064;51.654;5.476;2023-04-06T02:32:02;101681.47;;;5.12;56.49
72921;BME280;61064;51.654;5.476;2023-04-06T02:34:28;101660.28;;;5.11;56.60
72921;BME280;61064;51.654;5.476;2023-04-06T02:36:55;101718.09;;;5.48;56.54
72921;BME280;61064;51.654;5.476;2023-04-06T02:39:20;101723.34;;;5.46;56.32
72921;BME280;61064;51.654;5.476;2023-04-06T02:41:46;101657.91;;;5.17;56.33
72921;BME280;61064;51.654;5.476;2023-04-06T02:44:11;101721.88;;;5.54;56.26
72921;BME280;61064;51.654;5.476;2023-04-06T02:46:36;101697.63;;;5.42;56.47
72921;BME280;61064;51.654;5.476;2023-04-06T02:49:02;101710.50;;;5.55;56.25
72921;BME280;61064;51.654;5.476;2023-04-06T02:51:27;101712.06;;;5.50;56.29
72921;BME280;61064;51.654;5.476;2023-04-06T02:53:53;101626.84;;;5.10;56.30
72921;BME280;61064;51.654;5.476;2023-04-06T02:56:18;101707.03;;;5.56;56.54
72921;BME280;61064;51.654;5.476;2023-04-06T02:58:46;101629.81;;;5.17;56.60
72921;BME280;61064;51.654;5.476;2023-04-06T03:01:11;101665.72;;;5.36;56.63
72921;BME280;61064;51.654;5.476;2023-04-06T03:03:36;101698.22;;;5.56;56.80
72921;BME280;61064;51.654;5.476;2023-04-06T03:06:02;101561.28;;;4.76;56.80
72921;BME280;61064;51.654;5.476;2023-04-06T03:08:28;101650.53;;;5.30;56.97
72921;BME280;61064;51.654;5.476;2023-04-06T03:10:53;101682.88;;;5.47;56.61
72921;BME280;61064;51.654;5.476;2023-04-06T03:13:19;101669.59;;;5.44;56.76
72921;BME280;61064;51.654;5.476;2023-04-06T03:15:44;101663.06;;;5.36;57.01
72921;BME280;61064;51.654;5.476;2023-04-06T03:18:09;101705.22;;;5.55;57.02
72921;BME280;61064;51.654;5.476;2023-04-06T03:20:35;101689.31;;;5.54;57.05
72921;BME280;61064;51.654;5.476;2023-04-06T03:23:00;101665.13;;;5.43;57.13
72921;BME280;61064;51.654;5.476;2023-04-06T03:25:26;101691.13;;;5.55;56.97
72921;BME280;61064;51.654;5.476;2023-04-06T03:27:51;101637.31;;;5.29;56.91
72921;BME280;61064;51.654;5.476;2023-04-06T03:30:17;101635.69;;;5.32;56.96
72921;BME280;61064;51.654;5.476;2023-04-06T03:32:43;101636.41;;;5.28;57.06
72921;BME280;61064;51.654;5.476;2023-04-06T03:35:08;101649.72;;;5.31;57.18
72921;BME280;61064;51.654;5.476;2023-04-06T03:37:34;101683.28;;;5.56;57.28
72921;BME280;61064;51.654;5.476;2023-04-06T03:39:59;101627.09;;;5.16;57.25
72921;BME280;61064;51.654;5.476;2023-04-06T03:42:25;101658.84;;;5.39;57.77
72921;BME280;61064;51.654;5.476;2023-04-06T03:44:52;101680.47;;;5.52;57.38
72921;BME280;61064;51.654;5.476;2023-04-06T03:47:17;101676.00;;;5.51;57.35
72921;BME280;61064;51.654;5.476;2023-04-06T03:49:42;101627.53;;;5.26;57.46
72921;BME280;61064;51.654;5.476;2023-04-06T03:52:08;101646.50;;;5.38;57.47
72921;BME280;61064;51.654;5.476;2023-04-06T03:54:33;101649.19;;;5.40;57.50
72921;BME280;61064;51.654;5.476;2023-04-06T03:56:58;101593.13;;;5.02;57.59
72921;BME280;61064;51.654;5.476;2023-04-06T03:59:25;101625.69;;;5.24;57.83
72921;BME280;61064;51.654;5.476;2023-04-06T04:01:50;101644.59;;;5.36;57.90
72921;BME280;61064;51.654;5.476;2023-04-06T04:04:16;101647.97;;;5.32;58.01
72921;BME280;61064;51.654;5.476;2023-04-06T04:06:41;101643.53;;;5.31;58.02
72921;BME280;61064;51.654;5.476;2023-04-06T04:09:06;101648.94;;;5.34;57.87
72921;BME280;61064;51.654;5.476;2023-04-06T04:11:32;101609.09;;;5.06;57.90
72921;BME280;61064;51.654;5.476;2023-04-06T04:13:57;101678.34;;;5.43;57.85
72921;BME280;61064;51.654;5.476;2023-04-06T04:16:25;101620.66;;;5.09;58.03
72921;BME280;61064;51.654;5.476;2023-04-06T04:18:51;101647.72;;;5.26;58.19
72921;BME280;61064;51.654;5.476;2023-04-06T04:21:16;101640.47;;;5.20;58.15
72921;BME280;61064;51.654;5.476;2023-04-06T04:23:41;101646.78;;;5.24;58.33
72921;BME280;61064;51.654;5.476;2023-04-06T04:26:07;101617.00;;;5.06;58.15
72921;BME280;61064;51.654;5.476;2023-04-06T04:28:32;101667.41;;;5.34;58.27
72921;BME280;61064;51.654;5.476;2023-04-06T04:30:57;101622.47;;;5.10;58.39
72921;BME280;61064;51.654;5.476;2023-04-06T04:33:23;101672.63;;;5.32;58.25
72921;BME280;61064;51.654;5.476;2023-04-06T04:35:48;101678.81;;;5.33;58.25
72921;BME280;61064;51.654;5.476;2023-04-06T04:38:13;101648.38;;;5.20;58.44
72921;BME280;61064;51.654;5.476;2023-04-06T04:40:39;101628.72;;;5.12;58.33
72921;BME280;61064;51.654;5.476;2023-04-06T04:43:05;101626.50;;;5.02;58.78
72921;BME280;61064;51.654;5.476;2023-04-06T04:45:30;101614.22;;;5.02;58.92
72921;BME280;61064;51.654;5.476;2023-04-06T04:47:55;101656.69;;;5.29;58.76
72921;BME280;61064;51.654;5.476;2023-04-06T04:50:21;101630.31;;;5.09;58.86
72921;BME280;61064;51.654;5.476;2023-04-06T04:52:46;101652.06;;;5.24;58.90
72921;BME280;61064;51.654;5.476;2023-04-06T04:55:11;101659.19;;;5.26;58.96
72921;BME280;61064;51.654;5.476;2023-04-06T04:57:37;101634.63;;;5.07;58.97
72921;BME280;61064;51.654;5.476;2023-04-06T05:00:02;101594.13;;;4.84;58.90
72921;BME280;61064;51.654;5.476;2023-04-06T05:02:28;101664.38;;;5.25;58.71
72921;BME280;61064;51.654;5.476;2023-04-06T05:04:53;101608.59;;;4.93;58.92
72921;BME280;61064;51.654;5.476;2023-04-06T05:07:18;101609.59;;;4.97;59.02
72921;BME280;61064;51.654;5.476;2023-04-06T05:09:46;101576.19;;;4.75;58.96
72921;BME280;61064;51.654;5.476;2023-04-06T05:12:14;101538.06;;;4.46;59.03
72921;BME280;61064;51.654;5.476;2023-04-06T05:14:39;101625.59;;;5.01;59.09
72921;BME280;61064;51.654;5.476;2023-04-06T05:17:06;101621.19;;;5.00;59.13
72921;BME280;61064;51.654;5.476;2023-04-06T05:19:31;101591.63;;;4.87;58.85
72921;BME280;61064;51.654;5.476;2023-04-06T05:21:56;101612.38;;;5.00;58.87
72921;BME280;61064;51.654;5.476;2023-04-06T05:24:22;101609.84;;;5.03;59.13
72921;BME280;61064;51.654;5.476;2023-04-06T05:26:48;101663.88;;;5.33;58.96
72921;BME280;61064;51.654;5.476;2023-04-06T05:29:13;101633.44;;;5.21;59.00
72921;BME280;61064;51.654;5.476;2023-04-06T05:31:40;101628.25;;;5.22;59.02
72921;BME280;61064;51.654;5.476;2023-04-06T05:34:05;101644.31;;;5.28;59.29
72921;BME280;61064;51.654;5.476;2023-04-06T05:36:30;101621.09;;;5.20;59.47
72921;BME280;61064;51.654;5.476;2023-04-06T05:38:57;101653.75;;;5.44;59.03
72921;BME280;61064;51.654;5.476;2023-04-06T05:41:23;101611.50;;;5.22;59.33
72921;BME280;61064;51.654;5.476;2023-04-06T05:43:48;101609.84;;;5.24;59.20
72921;BME280;61064;51.654;5.476;2023-04-06T05:46:14;101646.91;;;5.49;59.29
72921;BME280;61064;51.654;5.476;2023-04-06T05:48:39;101591.16;;;5.19;59.27
72921;BME280;61064;51.654;5.476;2023-04-06T05:51:05;101612.19;;;5.38;59.54
72921;BME280;61064;51.654;5.476;2023-04-06T05:53:31;101646.34;;;5.58;59.29
72921;BME280;61064;51.654;5.476;2023-04-06T05:55:57;101640.88;;;5.52;59.23
72921;BME280;61064;51.654;5.476;2023-04-06T05:58:25;101651.84;;;5.62;59.48
72921;BME280;61064;51.654;5.476;2023-04-06T06:00:56;101606.84;;;5.37;59.76
72921;BME280;61064;51.654;5.476;2023-04-06T06:03:21;101658.19;;;5.67;59.60
72921;BME280;61064;51.654;5.476;2023-04-06T06:05:47;101645.94;;;5.69;59.40
72921;BME280;61064;51.654;5.476;2023-04-06T06:08:13;101599.16;;;5.43;59.52
72921;BME280;61064;51.654;5.476;2023-04-06T06:10:39;101644.38;;;5.74;59.48
72921;BME280;61064;51.654;5.476;2023-04-06T06:13:05;101584.22;;;5.43;59.11
72921;BME280;61064;51.654;5.476;2023-04-06T06:15:31;101578.06;;;5.43;59.02
72921;BME280;61064;51.654;5.476;2023-04-06T06:17:57;101645.56;;;5.82;59.02
72921;BME280;61064;51.654;5.476;2023-04-06T06:20:23;101630.22;;;5.72;59.43
72921;BME280;61064;51.654;5.476;2023-04-06T06:22:48;101589.75;;;5.50;59.12
72921;BME280;61064;51.654;5.476;2023-04-06T06:25:13;101589.09;;;5.55;59.25
72921;BME280;61064;51.654;5.476;2023-04-06T06:27:39;101662.00;;;5.96;59.28
72921;BME280;61064;51.654;5.476;2023-04-06T06:30:05;101608.03;;;5.67;59.29
72921;BME280;61064;51.654;5.476;2023-04-06T06:32:32;101656.91;;;6.02;59.21
72921;BME280;61064;51.654;5.476;2023-04-06T06:34:57;101583.44;;;5.68;59.00
72921;BME280;61064;51.654;5.476;2023-04-06T06:37:23;101633.94;;;6.00;59.04
72921;BME280;61064;51.654;5.476;2023-04-06T06:39:48;101623.16;;;5.94;59.23
72921;BME280;61064;51.654;5.476;2023-04-06T06:42:13;101621.34;;;5.93;59.28
72921;BME280;61064;51.654;5.476;2023-04-06T06:44:39;101577.38;;;5.71;59.07
72921;BME280;61064;51.654;5.476;2023-04-06T06:47:04;101605.41;;;5.90;59.26
72921;BME280;61064;51.654;5.476;2023-04-06T06:49:30;101578.56;;;5.79;59.47
72921;BME280;61064;51.654;5.476;2023-04-06T06:51:55;101659.50;;;6.24;59.37
72921;BME280;61064;51.654;5.476;2023-04-06T06:54:22;101621.75;;;6.03;59.57
72921;BME280;61064;51.654;5.476;2023-04-06T06:56:50;101580.66;;;5.88;59.46
72921;BME280;61064;51.654;5.476;2023-04-06T06:59:16;101635.56;;;6.20;59.34
72921;BME280;61064;51.654;5.476;2023-04-06T07:01:41;101526.97;;;5.65;59.50
72921;BME280;61064;51.654;5.476;2023-04-06T07:04:07;101639.78;;;6.39;59.47
72921;BME280;61064;51.654;5.476;2023-04-06T07:06:35;101638.13;;;6.41;59.30
72921;BME280;61064;51.654;5.476;2023-04-06T07:09:01;101638.22;;;6.44;59.36
72921;BME280;61064;51.654;5.476;2023-04-06T07:11:29;101517.56;;;5.71;59.27
72921;BME280;61064;51.654;5.476;2023-04-06T07:13:54;101477.28;;;5.53;59.59
72921;BME280;61064;51.654;5.476;2023-04-06T07:16:21;101603.34;;;6.30;59.79
72921;BME280;61064;51.654;5.476;2023-04-06T07:18:47;101576.53;;;6.19;59.40
72921;BME280;61064;51.654;5.476;2023-04-06T07:21:12;101634.34;;;6.59;59.36
72921;BME280;61064;51.654;5.476;2023-04-06T07:23:38;101603.09;;;6.48;59.39
72921;BME280;61064;51.654;5.476;2023-04-06T07:26:03;101577.13;;;6.36;59.44
72921;BME280;61064;51.654;5.476;2023-04-06T07:28:29;101630.28;;;6.69;59.43
72921;BME280;61064;51.654;5.476;2023-04-06T07:30:55;101594.47;;;6.53;59.49
72921;BME280;61064;51.654;5.476;2023-04-06T07:33:21;101615.00;;;6.60;59.49
72921;BME280;61064;51.654;5.476;2023-04-06T07:35:47;101583.66;;;6.46;59.30
72921;BME280;61064;51.654;5.476;2023-04-06T07:38:13;101626.22;;;6.79;59.33
72921;BME280;61064;51.654;5.476;2023-04-06T07:40:39;101576.94;;;6.55;59.62
72921;BME280;61064;51.654;5.476;2023-04-06T07:43:05;101589.53;;;6.62;59.80
72921;BME280;61064;51.654;5.476;2023-04-06T07:45:31;101614.91;;;6.83;59.55
72921;BME280;61064;51.654;5.476;2023-04-06T07:47:56;101609.75;;;6.87;59.53
72921;BME280;61064;51.654;5.476;2023-04-06T07:50:21;101605.28;;;6.85;59.56
72921;BME280;61064;51.654;5.476;2023-04-06T07:52:47;101645.75;;;7.09;59.46
72921;BME280;61064;51.654;5.476;2023-04-06T07:55:13;101572.59;;;6.83;59.59
72921;BME280;61064;51.654;5.476;2023-04-06T07:57:39;101606.88;;;7.06;59.51
72921;BME280;61064;51.654;5.476;2023-04-06T08:00:05;101570.97;;;6.88;59.46
72921;BME280;61064;51.654;5.476;2023-04-06T08:02:33;101609.94;;;7.19;59.65
72921;BME280;61064;51.654;5.476;2023-04-06T08:05:00;101599.44;;;7.22;59.52
72921;BME280;61064;51.654;5.476;2023-04-06T08:07:26;101621.13;;;7.38;59.43
72921;BME280;61064;51.654;5.476;2023-04-06T08:09:51;101591.78;;;7.31;59.04
72921;BME280;61064;51.654;5.476;2023-04-06T08:12:17;101623.47;;;7.56;59.05
72921;BME280;61064;51.654;5.476;2023-04-06T08:14:42;101565.09;;;7.25;59.06
72921;BME280;61064;51.654;5.476;2023-04-06T08:17:09;101598.78;;;7.57;58.83
72921;BME280;61064;51.654;5.476;2023-04-06T08:19:34;101627.53;;;7.73;58.76
72921;BME280;61064;51.654;5.476;2023-04-06T08:22:00;101599.59;;;7.55;58.74
72921;BME280;61064;51.654;5.476;2023-04-06T08:24:25;101605.16;;;7.64;58.60
72921;BME280;61064;51.654;5.476;2023-04-06T08:26:50;101607.97;;;7.68;58.89
72921;BME280;61064;51.654;5.476;2023-04-06T08:29:16;101479.78;;;7.03;58.39
72921;BME280;61064;51.654;5.476;2023-04-06T08:31:42;101629.84;;;7.91;58.60
72921;BME280;61064;51.654;5.476;2023-04-06T08:34:07;101619.25;;;7.91;58.60
72921;BME280;61064;51.654;5.476;2023-04-06T08:36:32;101619.06;;;7.85;58.25
72921;BME280;61064;51.654;5.476;2023-04-06T08:38:59;101631.97;;;8.04;58.54
72921;BME280;61064;51.654;5.476;2023-04-06T08:41:24;101639.16;;;8.08;58.43
72921;BME280;61064;51.654;5.476;2023-04-06T08:44:00;101634.00;;;8.13;58.36
72921;BME280;61064;51.654;5.476;2023-04-06T08:46:26;101581.44;;;7.97;58.30
72921;BME280;61064;51.654;5.476;2023-04-06T08:48:58;101624.69;;;8.27;58.41
72921;BME280;61064;51.654;5.476;2023-04-06T08:51:24;101594.25;;;8.13;58.44
72921;BME280;61064;51.654;5.476;2023-04-06T08:53:54;101597.88;;;8.16;58.23
72921;BME280;61064;51.654;5.476;2023-04-06T08:56:21;101571.13;;;8.07;58.30
72921;BME280;61064;51.654;5.476;2023-04-06T08:58:47;101581.25;;;8.22;58.24
72921;BME280;61064;51.654;5.476;2023-04-06T09:01:13;101638.84;;;8.59;58.06
72921;BME280;61064;51.654;5.476;2023-04-06T09:03:41;101596.84;;;8.41;58.12
72921;BME280;61064;51.654;5.476;2023-04-06T09:06:08;101609.56;;;8.54;58.18
72921;BME280;61064;51.654;5.476;2023-04-06T09:08:35;101582.88;;;8.48;58.30
72921;BME280;61064;51.654;5.476;2023-04-06T09:11:04;101636.94;;;8.86;58.02
72921;BME280;61064;51.654;5.476;2023-04-06T09:13:30;101635.34;;;8.93;57.96
72921;BME280;61064;51.654;5.476;2023-04-06T09:16:01;101594.25;;;8.77;58.12
72921;BME280;61064;51.654;5.476;2023-04-06T09:18:30;101606.19;;;8.94;58.13
72921;BME280;61064;51.654;5.476;2023-04-06T09:21:00;101591.97;;;8.92;58.05
72921;BME280;61064;51.654;5.476;2023-04-06T09:23:26;101607.28;;;9.02;57.77
72921;BME280;61064;51.654;5.476;2023-04-06T09:25:51;101565.28;;;8.86;58.06
72921;BME280;61064;51.654;5.476;2023-04-06T09:28:17;101537.53;;;8.72;58.05
72921;BME280;61064;51.654;5.476;2023-04-06T09:30:49;101630.13;;;9.32;58.15
72921;BME280;61064;51.654;5.476;2023-04-06T09:33:22;101609.63;;;9.25;58.68
72921;BME280;61064;51.654;5.476;2023-04-06T09:35:50;101620.34;;;9.31;58.39
72921;BME280;61064;51.654;5.476;2023-04-06T09:38:16;101572.16;;;9.14;58.57
72921;BME280;61064;51.654;5.476;2023-04-06T09:40:50;101614.63;;;9.50;58.31
72921;BME280;61064;51.654;5.476;2023-04-06T09:43:24;101635.19;;;9.58;58.96
72921;BME280;61064;51.654;5.476;2023-04-06T09:45:49;101538.56;;;9.14;58.94
72921;BME280;61064;51.654;5.476;2023-04-06T09:48:15;101576.41;;;9.43;59.02
72921;BME280;61064;51.654;5.476;2023-04-06T09:50:41;101633.81;;;9.76;59.03
72921;BME280;61064;51.654;5.476;2023-04-06T09:53:07;101622.22;;;9.72;59.30
72921;BME280;61064;51.654;5.476;2023-04-06T09:55:34;101623.31;;;9.82;59.50
72921;BME280;61064;51.654;5.476;2023-04-06T09:58:04;101627.91;;;9.89;59.74
72921;BME280;61064;51.654;5.476;2023-04-06T10:00:33;101628.03;;;9.95;59.81
72921;BME280;61064;51.654;5.476;2023-04-06T10:08:13;101632.63;;;10.03;60.05
72921;BME280;61064;51.654;5.476;2023-04-06T10:10:41;101630.78;;;9.99;60.06
72921;BME280;61064;51.654;5.476;2023-04-06T10:13:07;101600.00;;;9.70;60.38
72921;BME280;61064;51.654;5.476;2023-04-06T10:15:35;101648.25;;;9.88;61.04
72921;BME280;61064;51.654;5.476;2023-04-06T10:18:03;101576.44;;;9.45;61.01
72921;BME280;61064;51.654;5.476;2023-04-06T10:23:12;101586.97;;;9.42;61.62
72921;BME280;61064;51.654;5.476;2023-04-06T10:25:55;101644.19;;;9.65;62.15
72921;BME280;61064;51.654;5.476;2023-04-06T10:28:20;101640.47;;;9.57;62.61
72921;BME280;61064;51.654;5.476;2023-04-06T10:30:46;101610.88;;;9.40;62.70
72921;BME280;61064;51.654;5.476;2023-04-06T10:33:15;101615.31;;;9.41;63.14
72921;BME280;61064;51.654;5.476;2023-04-06T10:35:41;101640.53;;;9.60;63.37
72921;BME280;61064;51.654;5.476;2023-04-06T10:38:07;101556.94;;;9.05;63.45
72921;BME280;61064;51.654;5.476;2023-04-06T10:40:36;101540.00;;;9.00;63.61
72921;BME280;61064;51.654;5.476;2023-04-06T10:45:34;101613.28;;;9.31;63.98
72921;BME280;61064;51.654;5.476;2023-04-06T10:48:00;101539.66;;;8.85;64.19
72921;BME280;61064;51.654;5.476;2023-04-06T10:50:28;101635.78;;;9.45;64.51
72921;BME280;61064;51.654;5.476;2023-04-06T10:53:04;101623.91;;;9.31;64.87
72921;BME280;61064;51.654;5.476;2023-04-06T10:55:29;101610.38;;;9.21;64.65
72921;BME280;61064;51.654;5.476;2023-04-06T10:57:56;101611.28;;;9.21;65.27
72921;BME280;61064;51.654;5.476;2023-04-06T11:00:23;101589.03;;;9.16;65.85
72921;BME280;61064;51.654;5.476;2023-04-06T11:02:48;101647.06;;;9.37;65.58
72921;BME280;61064;51.654;5.476;2023-04-06T11:05:14;101528.88;;;8.79;65.89
72921;BME280;61064;51.654;5.476;2023-04-06T11:07:41;101525.28;;;8.77;66.08
72921;BME280;61064;51.654;5.476;2023-04-06T11:10:07;101563.88;;;9.00;66.30
72921;BME280;61064;51.654;5.476;2023-04-06T11:12:33;101589.03;;;9.16;66.43
72921;BME280;61064;51.654;5.476;2023-04-06T11:15:02;101613.38;;;9.34;66.75
72921;BME280;61064;51.654;5.476;2023-04-06T11:17:34;101575.44;;;9.02;66.86
72921;BME280;61064;51.654;5.476;2023-04-06T11:20:02;101586.19;;;9.08;66.92
72921;BME280;61064;51.654;5.476;2023-04-06T11:22:28;101615.69;;;9.19;66.88
72921;BME280;61064;51.654;5.476;2023-04-06T11:25:04;101620.94;;;9.17;67.56
72921;BME280;61064;51.654;5.476;2023-04-06T11:27:30;101568.13;;;8.94;67.33
72921;BME280;61064;51.654;5.476;2023-04-06T11:29:57;101603.16;;;9.13;67.51
72921;BME280;61064;51.654;5.476;2023-04-06T11:32:24;101491.75;;;8.45;67.74
72921;BME280;61064;51.654;5.476;2023-04-06T11:34:50;101602.19;;;9.11;67.72
72921;BME280;61064;51.654;5.476;2023-04-06T11:37:15;101581.47;;;8.95;68.00
72921;BME280;61064;51.654;5.476;2023-04-06T11:39:52;101594.72;;;8.95;68.25
72921;BME280;61064;51.654;5.476;2023-04-06T11:42:27;101602.69;;;8.95;68.70
72921;BME280;61064;51.654;5.476;2023-04-06T11:44:57;101579.34;;;8.82;68.55
72921;BME280;61064;51.654;5.476;2023-04-06T11:47:35;101595.63;;;8.96;68.82
72921;BME280;61064;51.654;5.476;2023-04-06T11:50:13;101584.91;;;8.93;68.94
72921;BME280;61064;51.654;5.476;2023-04-06T11:52:40;101557.09;;;8.77;69.11
72921;BME280;61064;51.654;5.476;2023-04-06T11:55:11;101579.75;;;8.99;69.71
72921;BME280;61064;51.654;5.476;2023-04-06T11:57:38;101475.91;;;8.48;69.24
72921;BME280;61064;51.654;5.476;2023-04-06T12:00:03;101579.06;;;9.06;69.56
72921;BME280;61064;51.654;5.476;2023-04-06T12:02:29;101513.75;;;8.76;69.31
72921;BME280;61064;51.654;5.476;2023-04-06T12:04:57;101469.84;;;8.52;69.98
72921;BME280;61064;51.654;5.476;2023-04-06T12:07:22;101473.50;;;8.57;69.97
72921;BME280;61064;51.654;5.476;2023-04-06T12:09:47;101469.13;;;8.59;69.87
72921;BME280;61064;51.654;5.476;2023-04-06T12:12:13;101537.59;;;9.11;70.04
72921;BME280;61064;51.654;5.476;2023-04-06T12:14:38;101558.38;;;9.29;70.01
72921;BME280;61064;51.654;5.476;2023-04-06T12:17:04;101531.53;;;9.16;70.42
72921;BME280;61064;51.654;5.476;2023-04-06T12:19:29;101526.41;;;9.24;70.49
72921;BME280;61064;51.654;5.476;2023-04-06T12:21:55;101539.88;;;9.33;70.48
72921;BME280;61064;51.654;5.476;2023-04-06T12:24:22;101523.75;;;9.26;70.62
72921;BME280;61064;51.654;5.476;2023-04-06T12:26:47;101570.41;;;9.53;70.29
72921;BME280;61064;51.654;5.476;2023-04-06T12:29:12;101506.06;;;9.25;70.22
72921;BME280;61064;51.654;5.476;2023-04-06T12:31:39;101531.97;;;9.36;70.47
72921;BME280;61064;51.654;5.476;2023-04-06T12:34:06;101566.78;;;9.48;70.40
72921;BME280;61064;51.654;5.476;2023-04-06T12:36:32;101553.50;;;9.48;70.53
72921;BME280;61064;51.654;5.476;2023-04-06T12:38:58;101542.72;;;9.41;70.75
72921;BME280;61064;51.654;5.476;2023-04-06T12:41:24;101518.41;;;9.23;70.90
72921;BME280;61064;51.654;5.476;2023-04-06T12:43:50;101560.41;;;9.42;71.10
72921;BME280;61064;51.654;5.476;2023-04-06T12:46:15;101538.88;;;9.28;71.48
72921;BME280;61064;51.654;5.476;2023-04-06T12:48:41;101559.41;;;9.35;71.46
72921;BME280;61064;51.654;5.476;2023-04-06T12:51:07;101469.75;;;8.86;71.54
72921;BME280;61064;51.654;5.476;2023-04-06T12:53:33;101540.53;;;9.23;71.69
72921;BME280;61064;51.654;5.476;2023-04-06T12:55:59;101530.63;;;9.16;72.20
72921;BME280;61064;51.654;5.476;2023-04-06T12:58:25;101490.13;;;8.87;72.47
72921;BME280;61064;51.654;5.476;2023-04-06T13:00:55;101516.13;;;9.00;72.70
72921;BME280;61064;51.654;5.476;2023-04-06T13:03:22;101543.00;;;9.15;72.70
72921;BME280;61064;51.654;5.476;2023-04-06T13:05:51;101487.47;;;8.87;73.09